sensor_id;sensor_type;location;lat;lon;timestamp;P1;durP1;ratioP1;P2;durP2;ratioP2
39848;SDS011;25518;47.878;15.914;2023-02-03T00:00:35;3.33;;;0.90;;
39848;SDS011;25518;47.878;15.914;2023-02-03T00:03:25;5.03;;;0.70;;
39848;SDS011;25518;47.878;15.914;2023-02-03T00:06:15;2.63;;;0.80;;
39848;SDS011;25518;47.878;15.914;2023-02-03T00:09:04;3.13;;;0.60;;
39848;SDS011;25518;47.878;15.914;2023-02-03T00:11:54;4.82;;;0.93;;
39848;SDS011;25518;47.878;15.914;2023-02-03T00:14:43;1.95;;;0.68;;
39848;SDS011;25518;47.878;15.914;2023-02-03T00:17:33;2.03;;;0.60;;
39848;SDS011;25518;47.878;15.914;2023-02-03T00:20:23;3.35;;;0.80;;
39848;SDS011;25518;47.878;15.914;2023-02-03T00:23:13;4.25;;;0.95;;
39848;SDS011;25518;47.878;15.914;2023-02-03T00:26:07;2.67;;;0.85;;
39848;SDS011;25518;47.878;15.914;2023-02-03T00:28:58;2.00;;;0.70;;
39848;SDS011;25518;47.878;15.914;2023-02-03T00:31:48;1.90;;;0.65;;
39848;SDS011;25518;47.878;15.914;2023-02-03T00:34:37;2.97;;;0.70;;
39848;SDS011;25518;47.878;15.914;2023-02-03T00:37:27;4.40;;;1.10;;
39848;SDS011;25518;47.878;15.914;2023-02-03T00:40:17;3.63;;;0.75;;
39848;SDS011;25518;47.878;15.914;2023-02-03T00:43:08;1.98;;;0.80;;
39848;SDS011;25518;47.878;15.914;2023-02-03T00:45:57;1.75;;;0.63;;
39848;SDS011;25518;47.878;15.914;2023-02-03T00:48:47;5.82;;;1.00;;
39848;SDS011;25518;47.878;15.914;2023-02-03T00:51:36;1.75;;;0.70;;
39848;SDS011;25518;47.878;15.914;2023-02-03T00:54:26;3.55;;;0.95;;
39848;SDS011;25518;47.878;15.914;2023-02-03T00:57:16;3.50;;;0.93;;
39848;SDS011;25518;47.878;15.914;2023-02-03T01:00:06;1.95;;;0.70;;
39848;SDS011;25518;47.878;15.914;2023-02-03T01:02:56;2.47;;;0.60;;
39848;SDS011;25518;47.878;15.914;2023-02-03T01:05:46;2.35;;;0.60;;
39848;SDS011;25518;47.878;15.914;2023-02-03T01:08:35;2.28;;;0.73;;
39848;SDS011;25518;47.878;15.914;2023-02-03T01:11:25;2.17;;;0.70;;
39848;SDS011;25518;47.878;15.914;2023-02-03T01:14:15;2.60;;;0.80;;
39848;SDS011;25518;47.878;15.914;2023-02-03T01:17:05;1.23;;;0.60;;
39848;SDS011;25518;47.878;15.914;2023-02-03T01:19:55;2.00;;;0.60;;
39848;SDS011;25518;47.878;15.914;2023-02-03T01:22:44;1.70;;;0.60;;
39848;SDS011;25518;47.878;15.914;2023-02-03T01:25:34;1.60;;;0.60;;
39848;SDS011;25518;47.878;15.914;2023-02-03T01:28:24;2.83;;;0.60;;
39848;SDS011;25518;47.878;15.914;2023-02-03T01:31:14;0.80;;;0.40;;
39848;SDS011;25518;47.878;15.914;2023-02-03T01:34:06;1.30;;;0.50;;
39848;SDS011;25518;47.878;15.914;2023-02-03T01:37:00;1.48;;;0.35;;
39848;SDS011;25518;47.878;15.914;2023-02-03T01:39:49;1.42;;;0.40;;
39848;SDS011;25518;47.878;15.914;2023-02-03T01:42:39;1.27;;;0.55;;
39848;SDS011;25518;47.878;15.914;2023-02-03T01:45:28;0.60;;;0.40;;
39848;SDS011;25518;47.878;15.914;2023-02-03T01:48:18;1.35;;;0.55;;
39848;SDS011;25518;47.878;15.914;2023-02-03T01:51:08;1.05;;;0.40;;
39848;SDS011;25518;47.878;15.914;2023-02-03T01:53:57;1.20;;;0.40;;
39848;SDS011;25518;47.878;15.914;2023-02-03T01:56:50;1.10;;;0.40;;
39848;SDS011;25518;47.878;15.914;2023-02-03T01:59:43;0.20;;;0.20;;
39848;SDS011;25518;47.878;15.914;2023-02-03T02:02:33;0.20;;;0.10;;
39848;SDS011;25518;47.878;15.914;2023-02-03T02:05:29;0.57;;;0.20;;
39848;SDS011;25518;47.878;15.914;2023-02-03T02:08:26;0.85;;;0.22;;
39848;SDS011;25518;47.878;15.914;2023-02-03T02:11:16;0.90;;;0.20;;
39848;SDS011;25518;47.878;15.914;2023-02-03T02:14:09;0.70;;;0.17;;
39848;SDS011;25518;47.878;15.914;2023-02-03T02:17:03;0.10;;;0.10;;
39848;SDS011;25518;47.878;15.914;2023-02-03T02:23:35;1.00;;;0.30;;
39848;SDS011;25518;47.878;15.914;2023-02-03T02:26:53;0.20;;;0.10;;
39848;SDS011;25518;47.878;15.914;2023-02-03T02:39:25;0.10;;;0.10;;
39848;SDS011;25518;47.878;15.914;2023-02-03T02:42:25;0.40;;;0.10;;
39848;SDS011;25518;47.878;15.914;2023-02-03T02:45:43;0.50;;;0.20;;
39848;SDS011;25518;47.878;15.914;2023-02-03T02:48:39;1.15;;;0.10;;
39848;SDS011;25518;47.878;15.914;2023-02-03T02:51:31;0.70;;;0.20;;
39848;SDS011;25518;47.878;15.914;2023-02-03T02:54:22;0.20;;;0.00;;
39848;SDS011;25518;47.878;15.914;2023-02-03T02:57:14;0.20;;;0.10;;
39848;SDS011;25518;47.878;15.914;2023-02-03T03:00:06;0.10;;;0.00;;
39848;SDS011;25518;47.878;15.914;2023-02-03T03:20:24;0.30;;;0.10;;
39848;SDS011;25518;47.878;15.914;2023-02-03T03:23:24;0.08;;;0.00;;
39848;SDS011;25518;47.878;15.914;2023-02-03T03:26:51;0.60;;;0.10;;
39848;SDS011;25518;47.878;15.914;2023-02-03T03:29:31;0.00;;;0.00;;
39848;SDS011;25518;47.878;15.914;2023-02-03T03:32:26;0.00;;;0.00;;
39848;SDS011;25518;47.878;15.914;2023-02-03T03:35:18;0.08;;;0.00;;
39848;SDS011;25518;47.878;15.914;2023-02-03T03:38:10;0.00;;;0.00;;
39848;SDS011;25518;47.878;15.914;2023-02-03T03:41:13;0.00;;;0.00;;
39848;SDS011;25518;47.878;15.914;2023-02-03T03:44:12;0.15;;;0.05;;
39848;SDS011;25518;47.878;15.914;2023-02-03T03:47:13;0.40;;;0.28;;
39848;SDS011;25518;47.878;15.914;2023-02-03T03:50:13;0.10;;;0.10;;
39848;SDS011;25518;47.878;15.914;2023-02-03T03:53:06;0.10;;;0.10;;
39848;SDS011;25518;47.878;15.914;2023-02-03T03:55:58;0.00;;;0.00;;
39848;SDS011;25518;47.878;15.914;2023-02-03T03:58:51;0.28;;;0.10;;
39848;SDS011;25518;47.878;15.914;2023-02-03T04:01:42;0.00;;;0.00;;
39848;SDS011;25518;47.878;15.914;2023-02-03T04:04:33;0.10;;;0.00;;
39848;SDS011;25518;47.878;15.914;2023-02-03T04:07:36;0.00;;;0.00;;
39848;SDS011;25518;47.878;15.914;2023-02-03T04:10:31;0.00;;;0.00;;
39848;SDS011;25518;47.878;15.914;2023-02-03T04:13:23;0.00;;;0.00;;
39848;SDS011;25518;47.878;15.914;2023-02-03T04:16:13;0.00;;;0.00;;
39848;SDS011;25518;47.878;15.914;2023-02-03T04:19:03;0.20;;;0.00;;
39848;SDS011;25518;47.878;15.914;2023-02-03T04:21:52;0.00;;;0.00;;
39848;SDS011;25518;47.878;15.914;2023-02-03T04:24:42;0.00;;;0.00;;
39848;SDS011;25518;47.878;15.914;2023-02-03T04:27:31;0.00;;;0.00;;
39848;SDS011;25518;47.878;15.914;2023-02-03T04:30:22;0.00;;;0.00;;
39848;SDS011;25518;47.878;15.914;2023-02-03T04:33:11;0.00;;;0.00;;
39848;SDS011;25518;47.878;15.914;2023-02-03T04:36:01;0.30;;;0.10;;
39848;SDS011;25518;47.878;15.914;2023-02-03T04:38:50;0.00;;;0.00;;
39848;SDS011;25518;47.878;15.914;2023-02-03T04:41:40;0.40;;;0.30;;
39848;SDS011;25518;47.878;15.914;2023-02-03T04:44:29;0.90;;;0.00;;
39848;SDS011;25518;47.878;15.914;2023-02-03T04:47:19;0.00;;;0.00;;
39848;SDS011;25518;47.878;15.914;2023-02-03T04:50:09;0.00;;;0.00;;
39848;SDS011;25518;47.878;15.914;2023-02-03T04:52:59;0.00;;;0.00;;
39848;SDS011;25518;47.878;15.914;2023-02-03T04:55:49;0.20;;;0.00;;
39848;SDS011;25518;47.878;15.914;2023-02-03T04:58:39;0.80;;;0.20;;
39848;SDS011;25518;47.878;15.914;2023-02-03T05:01:28;0.10;;;0.00;;
39848;SDS011;25518;47.878;15.914;2023-02-03T05:04:18;0.00;;;0.00;;
39848;SDS011;25518;47.878;15.914;2023-02-03T05:07:08;0.00;;;0.00;;
39848;SDS011;25518;47.878;15.914;2023-02-03T05:09:57;0.10;;;0.00;;
39848;SDS011;25518;47.878;15.914;2023-02-03T05:12:47;0.00;;;0.00;;
39848;SDS011;25518;47.878;15.914;2023-02-03T05:15:36;0.17;;;0.08;;
39848;SDS011;25518;47.878;15.914;2023-02-03T05:18:26;0.20;;;0.10;;
39848;SDS011;25518;47.878;15.914;2023-02-03T05:21:16;0.22;;;0.00;;
39848;SDS011;25518;47.878;15.914;2023-02-03T05:24:06;0.10;;;0.00;;
39848;SDS011;25518;47.878;15.914;2023-02-03T05:26:55;0.00;;;0.00;;
39848;SDS011;25518;47.878;15.914;2023-02-03T05:29:45;0.40;;;0.10;;
39848;SDS011;25518;47.878;15.914;2023-02-03T05:32:34;0.10;;;0.00;;
39848;SDS011;25518;47.878;15.914;2023-02-03T05:35:24;0.20;;;0.10;;
39848;SDS011;25518;47.878;15.914;2023-02-03T05:38:14;0.10;;;0.00;;
39848;SDS011;25518;47.878;15.914;2023-02-03T05:41:03;0.00;;;0.00;;
39848;SDS011;25518;47.878;15.914;2023-02-03T05:44:13;0.20;;;0.10;;
39848;SDS011;25518;47.878;15.914;2023-02-03T05:47:02;0.00;;;0.00;;
39848;SDS011;25518;47.878;15.914;2023-02-03T05:49:52;0.00;;;0.00;;
39848;SDS011;25518;47.878;15.914;2023-02-03T05:52:42;0.22;;;0.10;;
39848;SDS011;25518;47.878;15.914;2023-02-03T05:55:32;0.00;;;0.00;;
39848;SDS011;25518;47.878;15.914;2023-02-03T05:58:22;0.17;;;0.00;;
39848;SDS011;25518;47.878;15.914;2023-02-03T06:01:12;0.00;;;0.00;;
39848;SDS011;25518;47.878;15.914;2023-02-03T06:04:02;0.00;;;0.00;;
39848;SDS011;25518;47.878;15.914;2023-02-03T06:06:52;0.70;;;0.00;;
39848;SDS011;25518;47.878;15.914;2023-02-03T06:09:42;0.20;;;0.00;;
39848;SDS011;25518;47.878;15.914;2023-02-03T06:12:32;0.00;;;0.00;;
39848;SDS011;25518;47.878;15.914;2023-02-03T06:15:22;0.10;;;0.00;;
39848;SDS011;25518;47.878;15.914;2023-02-03T06:18:11;0.00;;;0.00;;
39848;SDS011;25518;47.878;15.914;2023-02-03T06:21:01;0.00;;;0.00;;
39848;SDS011;25518;47.878;15.914;2023-02-03T06:23:50;0.10;;;0.00;;
39848;SDS011;25518;47.878;15.914;2023-02-03T06:26:40;0.00;;;0.00;;
39848;SDS011;25518;47.878;15.914;2023-02-03T06:29:30;0.00;;;0.00;;
39848;SDS011;25518;47.878;15.914;2023-02-03T06:32:19;3.88;;;2.42;;
39848;SDS011;25518;47.878;15.914;2023-02-03T06:35:09;1.58;;;0.70;;
39848;SDS011;25518;47.878;15.914;2023-02-03T06:37:58;0.00;;;0.00;;
39848;SDS011;25518;47.878;15.914;2023-02-03T06:40:48;0.40;;;0.30;;
39848;SDS011;25518;47.878;15.914;2023-02-03T06:43:38;0.28;;;0.20;;
39848;SDS011;25518;47.878;15.914;2023-02-03T06:46:27;0.10;;;0.07;;
39848;SDS011;25518;47.878;15.914;2023-02-03T06:49:18;0.52;;;0.08;;
39848;SDS011;25518;47.878;15.914;2023-02-03T06:52:07;0.90;;;0.20;;
39848;SDS011;25518;47.878;15.914;2023-02-03T06:54:57;0.17;;;0.10;;
39848;SDS011;25518;47.878;15.914;2023-02-03T06:57:47;0.00;;;0.00;;
39848;SDS011;25518;47.878;15.914;2023-02-03T07:00:37;0.00;;;0.00;;
39848;SDS011;25518;47.878;15.914;2023-02-03T07:03:26;0.00;;;0.00;;
39848;SDS011;25518;47.878;15.914;2023-02-03T07:06:16;0.40;;;0.10;;
39848;SDS011;25518;47.878;15.914;2023-02-03T07:09:06;0.60;;;0.22;;
39848;SDS011;25518;47.878;15.914;2023-02-03T07:11:55;0.30;;;0.20;;
39848;SDS011;25518;47.878;15.914;2023-02-03T07:14:45;0.10;;;0.10;;
39848;SDS011;25518;47.878;15.914;2023-02-03T07:17:34;0.25;;;0.17;;
39848;SDS011;25518;47.878;15.914;2023-02-03T07:20:24;0.17;;;0.10;;
39848;SDS011;25518;47.878;15.914;2023-02-03T07:23:16;0.27;;;0.03;;
39848;SDS011;25518;47.878;15.914;2023-02-03T07:26:06;0.68;;;0.20;;
39848;SDS011;25518;47.878;15.914;2023-02-03T07:28:57;0.08;;;0.08;;
39848;SDS011;25518;47.878;15.914;2023-02-03T07:31:48;0.55;;;0.30;;
39848;SDS011;25518;47.878;15.914;2023-02-03T07:34:38;0.43;;;0.20;;
39848;SDS011;25518;47.878;15.914;2023-02-03T07:37:27;0.25;;;0.17;;
39848;SDS011;25518;47.878;15.914;2023-02-03T07:40:17;0.20;;;0.20;;
39848;SDS011;25518;47.878;15.914;2023-02-03T07:43:08;0.60;;;0.20;;
39848;SDS011;25518;47.878;15.914;2023-02-03T07:45:57;0.20;;;0.20;;
39848;SDS011;25518;47.878;15.914;2023-02-03T07:48:46;0.10;;;0.10;;
39848;SDS011;25518;47.878;15.914;2023-02-03T07:51:37;1.30;;;0.30;;
39848;SDS011;25518;47.878;15.914;2023-02-03T07:54:28;0.30;;;0.20;;
39848;SDS011;25518;47.878;15.914;2023-02-03T07:57:17;0.20;;;0.10;;
39848;SDS011;25518;47.878;15.914;2023-02-03T08:00:08;0.45;;;0.20;;
39848;SDS011;25518;47.878;15.914;2023-02-03T08:03:00;0.45;;;0.20;;
39848;SDS011;25518;47.878;15.914;2023-02-03T08:05:50;0.20;;;0.20;;
39848;SDS011;25518;47.878;15.914;2023-02-03T08:08:41;0.40;;;0.20;;
39848;SDS011;25518;47.878;15.914;2023-02-03T08:11:31;0.20;;;0.10;;
39848;SDS011;25518;47.878;15.914;2023-02-03T08:14:20;0.50;;;0.20;;
39848;SDS011;25518;47.878;15.914;2023-02-03T08:17:10;0.32;;;0.20;;
39848;SDS011;25518;47.878;15.914;2023-02-03T08:19:59;0.70;;;0.20;;
39848;SDS011;25518;47.878;15.914;2023-02-03T08:22:49;0.50;;;0.22;;
39848;SDS011;25518;47.878;15.914;2023-02-03T08:25:40;0.38;;;0.20;;
39848;SDS011;25518;47.878;15.914;2023-02-03T08:28:30;0.38;;;0.20;;
39848;SDS011;25518;47.878;15.914;2023-02-03T08:31:19;0.40;;;0.20;;
39848;SDS011;25518;47.878;15.914;2023-02-03T08:34:09;0.60;;;0.20;;
39848;SDS011;25518;47.878;15.914;2023-02-03T08:36:59;0.45;;;0.20;;
39848;SDS011;25518;47.878;15.914;2023-02-03T08:39:49;0.30;;;0.20;;
39848;SDS011;25518;47.878;15.914;2023-02-03T08:42:40;0.57;;;0.30;;
39848;SDS011;25518;47.878;15.914;2023-02-03T08:45:30;1.07;;;0.40;;
39848;SDS011;25518;47.878;15.914;2023-02-03T08:48:20;0.77;;;0.40;;
39848;SDS011;25518;47.878;15.914;2023-02-03T08:51:10;1.67;;;0.50;;
39848;SDS011;25518;47.878;15.914;2023-02-03T08:54:01;0.47;;;0.40;;
39848;SDS011;25518;47.878;15.914;2023-02-03T08:56:52;0.60;;;0.40;;
39848;SDS011;25518;47.878;15.914;2023-02-03T08:59:41;1.48;;;0.50;;
39848;SDS011;25518;47.878;15.914;2023-02-03T09:02:31;1.05;;;0.50;;
39848;SDS011;25518;47.878;15.914;2023-02-03T09:05:21;1.50;;;0.30;;
39848;SDS011;25518;47.878;15.914;2023-02-03T09:08:10;0.60;;;0.30;;
39848;SDS011;25518;47.878;15.914;2023-02-03T09:11:00;0.55;;;0.50;;
39848;SDS011;25518;47.878;15.914;2023-02-03T09:13:50;0.60;;;0.30;;
39848;SDS011;25518;47.878;15.914;2023-02-03T09:16:39;1.40;;;0.50;;
39848;SDS011;25518;47.878;15.914;2023-02-03T09:19:29;0.40;;;0.30;;
39848;SDS011;25518;47.878;15.914;2023-02-03T09:22:19;0.38;;;0.28;;
39848;SDS011;25518;47.878;15.914;2023-02-03T09:25:09;0.20;;;0.15;;
39848;SDS011;25518;47.878;15.914;2023-02-03T09:28:00;1.40;;;0.13;;
39848;SDS011;25518;47.878;15.914;2023-02-03T09:30:50;2.10;;;0.30;;
39848;SDS011;25518;47.878;15.914;2023-02-03T09:33:39;0.60;;;0.30;;
39848;SDS011;25518;47.878;15.914;2023-02-03T09:36:29;0.40;;;0.20;;
39848;SDS011;25518;47.878;15.914;2023-02-03T09:39:19;1.17;;;0.43;;
39848;SDS011;25518;47.878;15.914;2023-02-03T09:45:24;0.68;;;0.30;;
39848;SDS011;25518;47.878;15.914;2023-02-03T09:48:20;1.95;;;0.30;;
39848;SDS011;25518;47.878;15.914;2023-02-03T09:51:16;0.70;;;0.20;;
39848;SDS011;25518;47.878;15.914;2023-02-03T09:57:27;1.75;;;0.50;;
39848;SDS011;25518;47.878;15.914;2023-02-03T10:00:22;1.27;;;0.60;;
39848;SDS011;25518;47.878;15.914;2023-02-03T10:18:16;0.40;;;0.20;;
39848;SDS011;25518;47.878;15.914;2023-02-03T10:21:12;0.17;;;0.10;;
39848;SDS011;25518;47.878;15.914;2023-02-03T10:24:14;0.30;;;0.20;;
39848;SDS011;25518;47.878;15.914;2023-02-03T10:27:10;1.27;;;0.50;;
39848;SDS011;25518;47.878;15.914;2023-02-03T10:33:09;1.83;;;0.40;;
39848;SDS011;25518;47.878;15.914;2023-02-03T10:41:47;0.10;;;0.10;;
39848;SDS011;25518;47.878;15.914;2023-02-03T10:44:39;0.30;;;0.20;;
39848;SDS011;25518;47.878;15.914;2023-02-03T10:47:35;0.28;;;0.10;;
39848;SDS011;25518;47.878;15.914;2023-02-03T10:50:29;0.57;;;0.20;;
39848;SDS011;25518;47.878;15.914;2023-02-03T10:53:22;0.30;;;0.20;;
39848;SDS011;25518;47.878;15.914;2023-02-03T10:56:14;0.65;;;0.40;;
39848;SDS011;25518;47.878;15.914;2023-02-03T10:59:09;0.20;;;0.15;;
39848;SDS011;25518;47.878;15.914;2023-02-03T11:05:21;0.38;;;0.20;;
39848;SDS011;25518;47.878;15.914;2023-02-03T11:08:14;0.45;;;0.20;;
39848;SDS011;25518;47.878;15.914;2023-02-03T11:11:05;0.17;;;0.10;;
39848;SDS011;25518;47.878;15.914;2023-02-03T11:16:54;0.47;;;0.20;;
39848;SDS011;25518;47.878;15.914;2023-02-03T11:19:45;0.40;;;0.20;;
39848;SDS011;25518;47.878;15.914;2023-02-03T11:22:36;0.55;;;0.30;;
39848;SDS011;25518;47.878;15.914;2023-02-03T11:25:30;0.63;;;0.20;;
39848;SDS011;25518;47.878;15.914;2023-02-03T11:28:21;0.50;;;0.20;;
39848;SDS011;25518;47.878;15.914;2023-02-03T11:31:16;0.60;;;0.30;;
39848;SDS011;25518;47.878;15.914;2023-02-03T11:34:15;0.73;;;0.38;;
39848;SDS011;25518;47.878;15.914;2023-02-03T11:37:37;0.20;;;0.20;;
39848;SDS011;25518;47.878;15.914;2023-02-03T11:43:16;0.25;;;0.10;;
39848;SDS011;25518;47.878;15.914;2023-02-03T11:46:06;0.60;;;0.20;;
39848;SDS011;25518;47.878;15.914;2023-02-03T11:49:00;0.40;;;0.20;;
39848;SDS011;25518;47.878;15.914;2023-02-03T11:52:02;0.40;;;0.20;;
39848;SDS011;25518;47.878;15.914;2023-02-03T12:01:27;0.20;;;0.10;;
39848;SDS011;25518;47.878;15.914;2023-02-03T12:14:30;0.40;;;0.20;;
39848;SDS011;25518;47.878;15.914;2023-02-03T12:23:41;0.17;;;0.10;;
39848;SDS011;25518;47.878;15.914;2023-02-03T12:29:56;0.75;;;0.28;;
39848;SDS011;25518;47.878;15.914;2023-02-03T12:33:00;0.50;;;0.20;;
39848;SDS011;25518;47.878;15.914;2023-02-03T12:36:05;0.97;;;0.50;;
39848;SDS011;25518;47.878;15.914;2023-02-03T12:39:05;1.45;;;0.40;;
39848;SDS011;25518;47.878;15.914;2023-02-03T12:42:06;0.10;;;0.10;;
39848;SDS011;25518;47.878;15.914;2023-02-03T12:48:03;1.90;;;0.80;;
39848;SDS011;25518;47.878;15.914;2023-02-03T12:51:01;0.32;;;0.20;;
39848;SDS011;25518;47.878;15.914;2023-02-03T12:53:56;2.25;;;1.20;;
39848;SDS011;25518;47.878;15.914;2023-02-03T12:56:51;0.43;;;0.28;;
39848;SDS011;25518;47.878;15.914;2023-02-03T12:59:45;0.57;;;0.32;;
39848;SDS011;25518;47.878;15.914;2023-02-03T13:06:26;1.75;;;0.40;;
39848;SDS011;25518;47.878;15.914;2023-02-03T13:09:27;0.63;;;0.38;;
39848;SDS011;25518;47.878;15.914;2023-02-03T13:12:54;0.17;;;0.05;;
39848;SDS011;25518;47.878;15.914;2023-02-03T13:15:36;0.85;;;0.32;;
39848;SDS011;25518;47.878;15.914;2023-02-03T13:18:30;0.20;;;0.10;;
39848;SDS011;25518;47.878;15.914;2023-02-03T13:21:24;0.40;;;0.30;;
39848;SDS011;25518;47.878;15.914;2023-02-03T13:24:13;0.38;;;0.20;;
39848;SDS011;25518;47.878;15.914;2023-02-03T13:42:43;0.98;;;0.43;;
39848;SDS011;25518;47.878;15.914;2023-02-03T13:45:40;0.20;;;0.00;;
39848;SDS011;25518;47.878;15.914;2023-02-03T13:48:33;0.90;;;0.45;;
39848;SDS011;25518;47.878;15.914;2023-02-03T13:51:26;0.40;;;0.20;;
39848;SDS011;25518;47.878;15.914;2023-02-03T13:54:35;0.45;;;0.35;;
39848;SDS011;25518;47.878;15.914;2023-02-03T13:57:31;0.25;;;0.20;;
39848;SDS011;25518;47.878;15.914;2023-02-03T14:06:59;0.43;;;0.28;;
39848;SDS011;25518;47.878;15.914;2023-02-03T14:09:44;0.35;;;0.22;;
39848;SDS011;25518;47.878;15.914;2023-02-03T14:12:35;0.10;;;0.10;;
39848;SDS011;25518;47.878;15.914;2023-02-03T14:15:29;0.10;;;0.10;;
39848;SDS011;25518;47.878;15.914;2023-02-03T14:18:29;0.22;;;0.17;;
39848;SDS011;25518;47.878;15.914;2023-02-03T14:21:22;0.20;;;0.00;;
39848;SDS011;25518;47.878;15.914;2023-02-03T14:24:13;0.20;;;0.00;;
39848;SDS011;25518;47.878;15.914;2023-02-03T14:27:05;0.10;;;0.10;;
39848;SDS011;25518;47.878;15.914;2023-02-03T14:30:10;0.45;;;0.15;;
39848;SDS011;25518;47.878;15.914;2023-02-03T14:33:02;0.10;;;0.10;;
39848;SDS011;25518;47.878;15.914;2023-02-03T14:35:51;0.40;;;0.10;;
39848;SDS011;25518;47.878;15.914;2023-02-03T14:38:42;0.88;;;0.13;;
39848;SDS011;25518;47.878;15.914;2023-02-03T14:41:36;0.10;;;0.00;;
39848;SDS011;25518;47.878;15.914;2023-02-03T14:50:55;0.30;;;0.17;;
39848;SDS011;25518;47.878;15.914;2023-02-03T14:54:13;0.30;;;0.20;;
39848;SDS011;25518;47.878;15.914;2023-02-03T15:00:24;0.17;;;0.10;;
39848;SDS011;25518;47.878;15.914;2023-02-03T15:03:18;0.00;;;0.00;;
39848;SDS011;25518;47.878;15.914;2023-02-03T15:06:27;0.50;;;0.25;;
39848;SDS011;25518;47.878;15.914;2023-02-03T15:09:38;2.30;;;0.82;;
39848;SDS011;25518;47.878;15.914;2023-02-03T15:12:34;1.33;;;0.60;;
39848;SDS011;25518;47.878;15.914;2023-02-03T15:15:30;1.25;;;0.55;;
39848;SDS011;25518;47.878;15.914;2023-02-03T15:18:31;0.73;;;0.30;;
39848;SDS011;25518;47.878;15.914;2023-02-03T15:21:24;0.75;;;0.40;;
39848;SDS011;25518;47.878;15.914;2023-02-03T15:24:15;0.60;;;0.20;;
39848;SDS011;25518;47.878;15.914;2023-02-03T15:27:18;1.08;;;0.88;;
39848;SDS011;25518;47.878;15.914;2023-02-03T15:30:15;0.47;;;0.30;;
39848;SDS011;25518;47.878;15.914;2023-02-03T15:33:11;0.22;;;0.10;;
39848;SDS011;25518;47.878;15.914;2023-02-03T15:36:05;0.10;;;0.10;;
39848;SDS011;25518;47.878;15.914;2023-02-03T15:39:32;0.43;;;0.30;;
39848;SDS011;25518;47.878;15.914;2023-02-03T15:43:02;0.70;;;0.30;;
39848;SDS011;25518;47.878;15.914;2023-02-03T15:46:31;0.40;;;0.20;;
39848;SDS011;25518;47.878;15.914;2023-02-03T15:52:03;0.10;;;0.10;;
39848;SDS011;25518;47.878;15.914;2023-02-03T15:55:01;0.20;;;0.10;;
39848;SDS011;25518;47.878;15.914;2023-02-03T15:57:58;0.32;;;0.20;;
39848;SDS011;25518;47.878;15.914;2023-02-03T16:00:49;0.20;;;0.10;;
39848;SDS011;25518;47.878;15.914;2023-02-03T16:03:45;0.70;;;0.20;;
39848;SDS011;25518;47.878;15.914;2023-02-03T16:06:43;0.75;;;0.40;;
39848;SDS011;25518;47.878;15.914;2023-02-03T16:09:39;0.60;;;0.30;;
39848;SDS011;25518;47.878;15.914;2023-02-03T16:12:30;0.50;;;0.20;;
39848;SDS011;25518;47.878;15.914;2023-02-03T16:15:22;0.55;;;0.20;;
39848;SDS011;25518;47.878;15.914;2023-02-03T16:18:15;0.20;;;0.20;;
39848;SDS011;25518;47.878;15.914;2023-02-03T16:21:05;0.22;;;0.17;;
39848;SDS011;25518;47.878;15.914;2023-02-03T16:30:19;0.52;;;0.20;;
39848;SDS011;25518;47.878;15.914;2023-02-03T16:33:30;0.82;;;0.40;;
39848;SDS011;25518;47.878;15.914;2023-02-03T16:36:40;0.70;;;0.20;;
39848;SDS011;25518;47.878;15.914;2023-02-03T16:39:51;4.10;;;0.20;;
39848;SDS011;25518;47.878;15.914;2023-02-03T16:43:01;0.35;;;0.30;;
39848;SDS011;25518;47.878;15.914;2023-02-03T16:46:11;0.55;;;0.15;;
39848;SDS011;25518;47.878;15.914;2023-02-03T16:49:20;0.57;;;0.30;;
39848;SDS011;25518;47.878;15.914;2023-02-03T16:52:30;0.13;;;0.10;;
39848;SDS011;25518;47.878;15.914;2023-02-03T16:55:20;0.35;;;0.25;;
39848;SDS011;25518;47.878;15.914;2023-02-03T16:58:10;0.75;;;0.40;;
39848;SDS011;25518;47.878;15.914;2023-02-03T17:01:02;0.40;;;0.28;;
39848;SDS011;25518;47.878;15.914;2023-02-03T17:03:53;0.70;;;0.40;;
39848;SDS011;25518;47.878;15.914;2023-02-03T17:06:42;0.30;;;0.20;;
39848;SDS011;25518;47.878;15.914;2023-02-03T17:09:32;0.60;;;0.30;;
39848;SDS011;25518;47.878;15.914;2023-02-03T17:12:23;0.30;;;0.20;;
39848;SDS011;25518;47.878;15.914;2023-02-03T17:15:13;0.93;;;0.45;;
39848;SDS011;25518;47.878;15.914;2023-02-03T17:18:03;0.52;;;0.38;;
39848;SDS011;25518;47.878;15.914;2023-02-03T17:20:52;0.20;;;0.20;;
39848;SDS011;25518;47.878;15.914;2023-02-03T17:23:42;0.60;;;0.30;;
39848;SDS011;25518;47.878;15.914;2023-02-03T17:26:32;0.25;;;0.25;;
39848;SDS011;25518;47.878;15.914;2023-02-03T17:29:21;1.45;;;0.50;;
39848;SDS011;25518;47.878;15.914;2023-02-03T17:32:11;0.50;;;0.20;;
39848;SDS011;25518;47.878;15.914;2023-02-03T17:35:03;0.55;;;0.30;;
39848;SDS011;25518;47.878;15.914;2023-02-03T17:37:53;0.30;;;0.28;;
39848;SDS011;25518;47.878;15.914;2023-02-03T17:40:43;0.63;;;0.20;;
39848;SDS011;25518;47.878;15.914;2023-02-03T17:43:33;0.30;;;0.30;;
39848;SDS011;25518;47.878;15.914;2023-02-03T17:46:24;1.00;;;0.50;;
39848;SDS011;25518;47.878;15.914;2023-02-03T17:49:14;2.17;;;0.70;;
39848;SDS011;25518;47.878;15.914;2023-02-03T17:52:04;0.45;;;0.20;;
39848;SDS011;25518;47.878;15.914;2023-02-03T17:54:54;1.80;;;0.75;;
39848;SDS011;25518;47.878;15.914;2023-02-03T17:57:43;0.50;;;0.20;;
39848;SDS011;25518;47.878;15.914;2023-02-03T18:00:33;1.05;;;0.20;;
39848;SDS011;25518;47.878;15.914;2023-02-03T18:03:22;0.60;;;0.20;;
39848;SDS011;25518;47.878;15.914;2023-02-03T18:06:12;0.70;;;0.30;;
39848;SDS011;25518;47.878;15.914;2023-02-03T18:09:04;0.30;;;0.20;;
39848;SDS011;25518;47.878;15.914;2023-02-03T18:11:56;0.63;;;0.30;;
39848;SDS011;25518;47.878;15.914;2023-02-03T18:14:45;0.55;;;0.15;;
39848;SDS011;25518;47.878;15.914;2023-02-03T18:17:35;0.17;;;0.10;;
39848;SDS011;25518;47.878;15.914;2023-02-03T18:20:25;0.10;;;0.10;;
39848;SDS011;25518;47.878;15.914;2023-02-03T18:23:15;0.32;;;0.20;;
39848;SDS011;25518;47.878;15.914;2023-02-03T18:26:05;0.52;;;0.10;;
39848;SDS011;25518;47.878;15.914;2023-02-03T18:28:56;1.10;;;0.30;;
39848;SDS011;25518;47.878;15.914;2023-02-03T18:31:46;0.55;;;0.20;;
39848;SDS011;25518;47.878;15.914;2023-02-03T18:34:36;0.40;;;0.20;;
39848;SDS011;25518;47.878;15.914;2023-02-03T18:37:25;0.50;;;0.20;;
39848;SDS011;25518;47.878;15.914;2023-02-03T18:40:15;0.90;;;0.20;;
39848;SDS011;25518;47.878;15.914;2023-02-03T18:43:04;1.00;;;0.40;;
39848;SDS011;25518;47.878;15.914;2023-02-03T18:45:54;0.20;;;0.20;;
39848;SDS011;25518;47.878;15.914;2023-02-03T18:48:44;0.32;;;0.15;;
39848;SDS011;25518;47.878;15.914;2023-02-03T18:51:33;0.25;;;0.20;;
39848;SDS011;25518;47.878;15.914;2023-02-03T18:54:23;0.28;;;0.15;;
39848;SDS011;25518;47.878;15.914;2023-02-03T18:57:12;0.10;;;0.10;;
39848;SDS011;25518;47.878;15.914;2023-02-03T19:00:04;0.40;;;0.20;;
39848;SDS011;25518;47.878;15.914;2023-02-03T19:02:55;0.15;;;0.10;;
39848;SDS011;25518;47.878;15.914;2023-02-03T19:05:44;0.10;;;0.05;;
39848;SDS011;25518;47.878;15.914;2023-02-03T19:08:34;0.40;;;0.20;;
39848;SDS011;25518;47.878;15.914;2023-02-03T19:11:24;1.35;;;0.40;;
39848;SDS011;25518;47.878;15.914;2023-02-03T19:14:14;1.02;;;0.40;;
39848;SDS011;25518;47.878;15.914;2023-02-03T19:17:04;0.60;;;0.32;;
39848;SDS011;25518;47.878;15.914;2023-02-03T19:19:54;0.77;;;0.30;;
39848;SDS011;25518;47.878;15.914;2023-02-03T19:22:43;0.40;;;0.20;;
39848;SDS011;25518;47.878;15.914;2023-02-03T19:25:34;0.10;;;0.10;;
39848;SDS011;25518;47.878;15.914;2023-02-03T19:28:24;0.30;;;0.10;;